Cap Bonavista — A8CH8 — position and weather

sailwx.info

Track history (hours):
 
Tides and Currents Weather Stations Pressure Air Temp Water Temp Dewpoint Dewpoint Depression Visibility Wind Speed Wind Dir Waves Ship Positions

Cap Bonavista

Last reported at 2016-May-29 12:30 UTC. Time now 2016-May-30 08:38 UTC.
Position N 27°48' W 013°52'.

Length 200 m; beam 29.8 m; draft 11.6 m.

Type: Cargo ship. MMSI: 636090647.

Date/timePositionNaut miles runAvg speedWind from/ knotsBaromVisibWave heightAir tempDewpointWater temp
2016-May-29 12:30N 27°48' W 013°52'1714.2
2016-May-29 11:17N 28°03' W 013°43'1414.3
2016-May-29 10:18N 28°16' W 013°37'1114.2
2016-May-29 09:30N 28°26' W 013°31'1314.1
2016-May-29 08:33N 28°39' W 013°25'1414.3
2016-May-29 07:33N 28°51' W 013°18'1413.6
2016-May-29 06:33N 29°04' W 013°11'1413.0
2016-May-29 05:26N 29°17' W 013°04'55714.0
2016-May-27 13:33N 35°60' W 005°27'8 7.7
2016-May-27 12:31N 36°08' W 005°25'0 0.0
2016-May-27 11:31N 36°08' W 005°25'0 0.0
2016-May-27 10:31N 36°08' W 005°25'0 0.0
2016-May-27 09:31N 36°08' W 005°25'0 0.0
2016-May-27 08:28N 36°08' W 005°25'0 0.0
2016-May-27 07:31N 36°08' W 005°25'0 0.0
2016-May-27 06:32N 36°08' W 005°25'0 0.0
2016-May-27 05:28N 36°08' W 005°25'0 0.0
2016-May-27 04:32N 36°08' W 005°25'0 0.0
2016-May-27 03:32N 36°08' W 005°25'1 1.1
2016-May-27 02:33N 36°09' W 005°24'2 1.5
2016-May-27 01:32N 36°07' W 005°24'0 0.1
2016-May-27 00:32N 36°07' W 005°24'0 0.0
2016-May-26 23:32N 36°07' W 005°24'1 0.8
2016-May-26 22:33N 36°08' W 005°24'3 2.8
2016-May-26 21:33N 36°05' W 005°23'0 0.3
2016-May-26 20:33N 36°05' W 005°23'11 0.9
2016-May-26 08:14N 35°56' W 005°30'811.9
2016-May-26 07:33N 36°03' W 005°24'6 5.8
2016-May-26 06:33N 36°08' W 005°26'0 0.0
2016-May-26 05:30N 36°08' W 005°26'0 0.0
2016-May-26 04:33N 36°08' W 005°26'0 0.0
2016-May-26 03:33N 36°08' W 005°26'0 0.0
2016-May-26 02:33N 36°08' W 005°26'0 0.0
2016-May-26 01:33N 36°08' W 005°26'0 0.0
2016-May-26 00:33N 36°08' W 005°26'0 0.0
2016-May-25 23:33N 36°08' W 005°26'0 0.0
2016-May-25 22:30N 36°08' W 005°26'0 0.0
2016-May-25 21:33N 36°08' W 005°26'2 1.5
2016-May-25 20:33N 36°09' W 005°24'3 2.7
2016-May-25 19:32N 36°06' W 005°25'0 0.1
2016-May-25 18:32N 36°06' W 005°25'0 0.0
2016-May-25 17:32N 36°06' W 005°25'0 0.0
2016-May-25 16:29N 36°06' W 005°25'0 0.1
2016-May-25 15:32N 36°06' W 005°25'0 0.1
2016-May-25 14:23N 36°06' W 005°25'0 0.0
2016-May-25 13:20N 36°06' W 005°25'0 0.0
2016-May-25 12:32N 36°06' W 005°25'0 0.1
2016-May-25 11:31N 36°06' W 005°25'0 0.1
2016-May-25 10:31N 36°06' W 005°25'0 0.0
2016-May-25 09:31N 36°06' W 005°25'0 0.0
2016-May-25 08:31N 36°06' W 005°25'0 0.0
2016-May-25 07:31N 36°06' W 005°25'0 0.0
2016-May-25 06:28N 36°06' W 005°25'0 0.1
2016-May-25 05:25N 36°06' W 005°25'0 0.0
2016-May-25 04:31N 36°06' W 005°25'0 0.0
2016-May-25 03:31N 36°06' W 005°25'0 0.1
2016-May-25 02:31N 36°06' W 005°25'0 0.0
2016-May-25 01:28N 36°06' W 005°25'0 0.0
2016-May-25 00:31N 36°06' W 005°25'0 0.0
2016-May-24 23:22N 36°06' W 005°25'0 0.1
2016-May-24 22:31N 36°06' W 005°25'0 0.2
2016-May-24 21:31N 36°06' W 005°25'0 0.0
2016-May-24 20:31N 36°06' W 005°25'0 0.0
2016-May-24 19:31N 36°06' W 005°25'0 0.1
2016-May-24 18:31N 36°06' W 005°25'0 0.2
2016-May-24 17:29N 36°06' W 005°25'0 0.0
2016-May-24 16:32N 36°06' W 005°25'0 0.1
2016-May-24 15:32N 36°06' W 005°25'0 0.1
2016-May-24 14:32N 36°06' W 005°25'0 0.1
2016-May-24 13:32N 36°06' W 005°25'0 0.1
2016-May-24 12:32N 36°06' W 005°25'0 0.0
2016-May-24 11:32N 36°06' W 005°25'4 4.2
2016-May-24 10:33N 36°04' W 005°21'22012.1
2016-May-23 16:27N 37°15' W 001°02'1617.5
2016-May-23 15:31N 37°26' W 000°46'1717.5
2016-May-23 14:33N 37°37' W 000°30'2217.4
2016-May-23 13:17N 37°56' W 000°15'12514.0
2016-May-23 04:24N 39°43' E 001°06'1 1.4
2016-May-23 03:24N 39°44' E 001°07'18 9.5
2016-May-23 01:31N 40°00' E 000°57'1616.6
2016-May-23 00:33N 40°16' E 001°01'1716.7
2016-May-22 23:33N 40°33' E 001°06'1716.8
2016-May-22 22:33N 40°49' E 001°09'17 3.1
2016-May-22 17:06N 41°06' E 001°13'8 0.9
2016-May-22 09:03N 40°58' E 001°12'1 1.0
2016-May-22 08:33N 40°58' E 001°12'2 0.9
2016-May-22 06:29N 40°56' E 001°11'7 6.4
2016-May-22 05:22N 40°49' E 001°07'1010.8
2016-May-22 04:25N 40°39' E 001°03'910.8
2016-May-22 03:33N 40°31' E 001°00'1110.6
2016-May-22 02:34N 40°23' E 000°51'1010.3
2016-May-22 01:33N 40°15' E 000°41'5610.5
2016-May-21 20:12N 39°33' W 000°07'710.6
2016-May-21 19:33N 39°28' W 000°13'5 4.5
2016-May-21 18:32N 39°27' W 000°19'0 0.0
2016-May-21 17:32N 39°27' W 000°19'0 0.0
2016-May-21 16:32N 39°27' W 000°19'0 0.0
2016-May-21 15:32N 39°27' W 000°19'0 0.0
2016-May-21 14:29N 39°27' W 000°19'0 0.0
2016-May-21 13:32N 39°27' W 000°19'0 0.0
2016-May-21 12:31N 39°27' W 000°19'0 0.0
2016-May-21 11:31N 39°27' W 000°19'0 0.0
2016-May-21 10:31N 39°27' W 000°19'0 0.0
2016-May-21 09:31N 39°27' W 000°19'0 0.0
2016-May-21 08:22N 39°27' W 000°19'0 0.0
2016-May-21 07:31N 39°27' W 000°19'0 0.0
2016-May-21 06:31N 39°27' W 000°19'0 0.0
2016-May-21 05:31N 39°27' W 000°19'0 0.0
2016-May-21 04:31N 39°27' W 000°19'0 0.0
2016-May-21 03:31N 39°27' W 000°19'0 0.0
2016-May-21 02:31N 39°27' W 000°19'0 0.0
2016-May-21 01:31N 39°27' W 000°19'0 0.0
2016-May-21 00:31N 39°27' W 000°19'0 0.0
2016-May-20 23:31N 39°27' W 000°19'0 0.0
2016-May-20 22:31N 39°27' W 000°19'0 0.0
2016-May-20 21:31N 39°27' W 000°19'0 0.0
2016-May-20 20:31N 39°27' W 000°19'0 0.0
2016-May-20 19:31N 39°27' W 000°19'0 0.0
2016-May-20 18:31N 39°27' W 000°19'0 0.0
2016-May-20 17:31N 39°27' W 000°19'0 0.0
2016-May-20 16:28N 39°27' W 000°19'0 0.0
2016-May-20 15:31N 39°27' W 000°19'0 0.0
2016-May-20 14:33N 39°27' W 000°19'0 0.0
2016-May-20 13:30N 39°27' W 000°19'3 3.1
2016-May-20 12:33N 39°25' W 000°16'6 5.7
2016-May-20 11:33N 39°25' W 000°09'8011.4
2016-May-20 04:31N 38°05' W 000°04'1513.6
2016-May-20 03:27N 37°52' W 000°14'1214.0
2016-May-20 02:33N 37°42' W 000°23'1413.9
2016-May-20 01:33N 37°32' W 000°34'1413.8
2016-May-20 00:33N 37°22' W 000°47'1413.7
2016-May-19 23:33N 37°13' W 000°59'  
Track history (hours):
 
Tides and Currents Weather Stations Pressure Air Temp Water Temp Dewpoint Dewpoint Depression Visibility Wind Speed Wind Dir Waves Ship Positions

Cap Bonavista

Last reported at 2016-May-29 12:30 UTC. Time now 2016-May-30 08:38 UTC.
Position N 27°48' W 013°52'.

Length 200 m; beam 29.8 m; draft 11.6 m.

Type: Cargo ship. MMSI: 636090647.

Date/timePositionNaut miles runAvg speedWind from/ knotsBaromVisibWave heightAir tempDewpointWater temp
2016-May-29 12:30N 27°48' W 013°52'1714.2
2016-May-29 11:17N 28°03' W 013°43'1414.3
2016-May-29 10:18N 28°16' W 013°37'1114.2
2016-May-29 09:30N 28°26' W 013°31'1314.1
2016-May-29 08:33N 28°39' W 013°25'1414.3
2016-May-29 07:33N 28°51' W 013°18'1413.6
2016-May-29 06:33N 29°04' W 013°11'1413.0
2016-May-29 05:26N 29°17' W 013°04'55714.0
2016-May-27 13:33N 35°60' W 005°27'8 7.7
2016-May-27 12:31N 36°08' W 005°25'0 0.0
2016-May-27 11:31N 36°08' W 005°25'0 0.0
2016-May-27 10:31N 36°08' W 005°25'0 0.0
2016-May-27 09:31N 36°08' W 005°25'0 0.0
2016-May-27 08:28N 36°08' W 005°25'0 0.0
2016-May-27 07:31N 36°08' W 005°25'0 0.0
2016-May-27 06:32N 36°08' W 005°25'0 0.0
2016-May-27 05:28N 36°08' W 005°25'0 0.0
2016-May-27 04:32N 36°08' W 005°25'0 0.0
2016-May-27 03:32N 36°08' W 005°25'1 1.1
2016-May-27 02:33N 36°09' W 005°24'2 1.5
2016-May-27 01:32N 36°07' W 005°24'0 0.1
2016-May-27 00:32N 36°07' W 005°24'0 0.0
2016-May-26 23:32N 36°07' W 005°24'1 0.8
2016-May-26 22:33N 36°08' W 005°24'3 2.8
2016-May-26 21:33N 36°05' W 005°23'0 0.3
2016-May-26 20:33N 36°05' W 005°23'11 0.9
2016-May-26 08:14N 35°56' W 005°30'811.9
2016-May-26 07:33N 36°03' W 005°24'6 5.8
2016-May-26 06:33N 36°08' W 005°26'0 0.0
2016-May-26 05:30N 36°08' W 005°26'0 0.0
2016-May-26 04:33N 36°08' W 005°26'0 0.0
2016-May-26 03:33N 36°08' W 005°26'0 0.0
2016-May-26 02:33N 36°08' W 005°26'0 0.0
2016-May-26 01:33N 36°08' W 005°26'0 0.0
2016-May-26 00:33N 36°08' W 005°26'0 0.0
2016-May-25 23:33N 36°08' W 005°26'0 0.0
2016-May-25 22:30N 36°08' W 005°26'0 0.0
2016-May-25 21:33N 36°08' W 005°26'2 1.5
2016-May-25 20:33N 36°09' W 005°24'3 2.7
2016-May-25 19:32N 36°06' W 005°25'0 0.1
2016-May-25 18:32N 36°06' W 005°25'0 0.0
2016-May-25 17:32N 36°06' W 005°25'0 0.0
2016-May-25 16:29N 36°06' W 005°25'0 0.1
2016-May-25 15:32N 36°06' W 005°25'0 0.1
2016-May-25 14:23N 36°06' W 005°25'0 0.0
2016-May-25 13:20N 36°06' W 005°25'0 0.0
2016-May-25 12:32N 36°06' W 005°25'0 0.1
2016-May-25 11:31N 36°06' W 005°25'0 0.1
2016-May-25 10:31N 36°06' W 005°25'0 0.0
2016-May-25 09:31N 36°06' W 005°25'0 0.0
2016-May-25 08:31N 36°06' W 005°25'0 0.0
2016-May-25 07:31N 36°06' W 005°25'0 0.0
2016-May-25 06:28N 36°06' W 005°25'0 0.1
2016-May-25 05:25N 36°06' W 005°25'0 0.0
2016-May-25 04:31N 36°06' W 005°25'0 0.0
2016-May-25 03:31N 36°06' W 005°25'0 0.1
2016-May-25 02:31N 36°06' W 005°25'0 0.0
2016-May-25 01:28N 36°06' W 005°25'0 0.0
2016-May-25 00:31N 36°06' W 005°25'0 0.0
2016-May-24 23:22N 36°06' W 005°25'0 0.1
2016-May-24 22:31N 36°06' W 005°25'0 0.2
2016-May-24 21:31N 36°06' W 005°25'0 0.0
2016-May-24 20:31N 36°06' W 005°25'0 0.0
2016-May-24 19:31N 36°06' W 005°25'0 0.1
2016-May-24 18:31N 36°06' W 005°25'0 0.2
2016-May-24 17:29N 36°06' W 005°25'0 0.0
2016-May-24 16:32N 36°06' W 005°25'0 0.1
2016-May-24 15:32N 36°06' W 005°25'0 0.1
2016-May-24 14:32N 36°06' W 005°25'0 0.1
2016-May-24 13:32N 36°06' W 005°25'0 0.1
2016-May-24 12:32N 36°06' W 005°25'0 0.0
2016-May-24 11:32N 36°06' W 005°25'4 4.2
2016-May-24 10:33N 36°04' W 005°21'22012.1
2016-May-23 16:27N 37°15' W 001°02'1617.5
2016-May-23 15:31N 37°26' W 000°46'1717.5
2016-May-23 14:33N 37°37' W 000°30'2217.4
2016-May-23 13:17N 37°56' W 000°15'12514.0
2016-May-23 04:24N 39°43' E 001°06'1 1.4
2016-May-23 03:24N 39°44' E 001°07'18 9.5
2016-May-23 01:31N 40°00' E 000°57'1616.6
2016-May-23 00:33N 40°16' E 001°01'1716.7
2016-May-22 23:33N 40°33' E 001°06'1716.8
2016-May-22 22:33N 40°49' E 001°09'17 3.1
2016-May-22 17:06N 41°06' E 001°13'8 0.9
2016-May-22 09:03N 40°58' E 001°12'1 1.0
2016-May-22 08:33N 40°58' E 001°12'2 0.9
2016-May-22 06:29N 40°56' E 001°11'7 6.4
2016-May-22 05:22N 40°49' E 001°07'1010.8
2016-May-22 04:25N 40°39' E 001°03'910.8
2016-May-22 03:33N 40°31' E 001°00'1110.6
2016-May-22 02:34N 40°23' E 000°51'1010.3
2016-May-22 01:33N 40°15' E 000°41'5610.5
2016-May-21 20:12N 39°33' W 000°07'710.6
2016-May-21 19:33N 39°28' W 000°13'5 4.5
2016-May-21 18:32N 39°27' W 000°19'0 0.0
2016-May-21 17:32N 39°27' W 000°19'0 0.0
2016-May-21 16:32N 39°27' W 000°19'0 0.0
2016-May-21 15:32N 39°27' W 000°19'0 0.0
2016-May-21 14:29N 39°27' W 000°19'0 0.0
2016-May-21 13:32N 39°27' W 000°19'0 0.0
2016-May-21 12:31N 39°27' W 000°19'0 0.0
2016-May-21 11:31N 39°27' W 000°19'0 0.0
2016-May-21 10:31N 39°27' W 000°19'0 0.0
2016-May-21 09:31N 39°27' W 000°19'0 0.0
2016-May-21 08:22N 39°27' W 000°19'0 0.0
2016-May-21 07:31N 39°27' W 000°19'0 0.0
2016-May-21 06:31N 39°27' W 000°19'0 0.0
2016-May-21 05:31N 39°27' W 000°19'0 0.0
2016-May-21 04:31N 39°27' W 000°19'0 0.0
2016-May-21 03:31N 39°27' W 000°19'0 0.0
2016-May-21 02:31N 39°27' W 000°19'0 0.0
2016-May-21 01:31N 39°27' W 000°19'0 0.0
2016-May-21 00:31N 39°27' W 000°19'0 0.0
2016-May-20 23:31N 39°27' W 000°19'0 0.0
2016-May-20 22:31N 39°27' W 000°19'0 0.0
2016-May-20 21:31N 39°27' W 000°19'0 0.0
2016-May-20 20:31N 39°27' W 000°19'0 0.0
2016-May-20 19:31N 39°27' W 000°19'0 0.0
2016-May-20 18:31N 39°27' W 000°19'0 0.0
2016-May-20 17:31N 39°27' W 000°19'0 0.0
2016-May-20 16:28N 39°27' W 000°19'0 0.0
2016-May-20 15:31N 39°27' W 000°19'0 0.0
2016-May-20 14:33N 39°27' W 000°19'0 0.0
2016-May-20 13:30N 39°27' W 000°19'3 3.1
2016-May-20 12:33N 39°25' W 000°16'6 5.7
2016-May-20 11:33N 39°25' W 000°09'8011.4
2016-May-20 04:31N 38°05' W 000°04'1513.6
2016-May-20 03:27N 37°52' W 000°14'1214.0
2016-May-20 02:33N 37°42' W 000°23'1413.9
2016-May-20 01:33N 37°32' W 000°34'1413.8
2016-May-20 00:33N 37°22' W 000°47'1413.7
2016-May-19 23:33N 37°13' W 000°59'  

Dump ship's entire track history